sensor_id;sensor_type;location;lat;lon;timestamp;temperature;humidity
23475;DHT22;11910;52.086;21.066;2023-07-20T00:01:14;17.60;88.50
23475;DHT22;11910;52.086;21.066;2023-07-20T00:03:40;17.50;88.40
23475;DHT22;11910;52.086;21.066;2023-07-20T00:06:06;17.50;89.40
23475;DHT22;11910;52.086;21.066;2023-07-20T00:08:31;17.50;91.10
23475;DHT22;11910;52.086;21.066;2023-07-20T00:10:57;17.50;92.10
23475;DHT22;11910;52.086;21.066;2023-07-20T00:13:22;17.50;92.40
23475;DHT22;11910;52.086;21.066;2023-07-20T00:15:48;17.50;90.80
23475;DHT22;11910;52.086;21.066;2023-07-20T00:18:13;17.50;90.40
23475;DHT22;11910;52.086;21.066;2023-07-20T00:20:39;17.50;90.20
23475;DHT22;11910;52.086;21.066;2023-07-20T00:23:05;17.50;90.80
23475;DHT22;11910;52.086;21.066;2023-07-20T00:25:31;17.50;91.90
23475;DHT22;11910;52.086;21.066;2023-07-20T00:27:57;17.50;92.20
23475;DHT22;11910;52.086;21.066;2023-07-20T00:30:22;17.40;92.90
23475;DHT22;11910;52.086;21.066;2023-07-20T00:32:48;17.50;92.90
23475;DHT22;11910;52.086;21.066;2023-07-20T00:35:13;17.40;91.30
23475;DHT22;11910;52.086;21.066;2023-07-20T00:37:39;17.40;91.20
23475;DHT22;11910;52.086;21.066;2023-07-20T00:40:07;17.40;91.00
23475;DHT22;11910;52.086;21.066;2023-07-20T00:42:33;17.30;91.80
23475;DHT22;11910;52.086;21.066;2023-07-20T00:44:58;17.30;92.40
23475;DHT22;11910;52.086;21.066;2023-07-20T00:47:24;17.20;92.80
23475;DHT22;11910;52.086;21.066;2023-07-20T00:49:51;17.20;93.90
23475;DHT22;11910;52.086;21.066;2023-07-20T00:52:18;17.20;94.30
23475;DHT22;11910;52.086;21.066;2023-07-20T00:54:46;17.30;93.10
23475;DHT22;11910;52.086;21.066;2023-07-20T00:57:14;17.30;93.20
23475;DHT22;11910;52.086;21.066;2023-07-20T00:59:40;17.40;93.00
23475;DHT22;11910;52.086;21.066;2023-07-20T01:02:05;17.30;92.90
23475;DHT22;11910;52.086;21.066;2023-07-20T01:04:31;17.40;93.00
23475;DHT22;11910;52.086;21.066;2023-07-20T01:09:31;17.30;93.60
23475;DHT22;11910;52.086;21.066;2023-07-20T01:14:28;17.30;94.40
23475;DHT22;11910;52.086;21.066;2023-07-20T01:16:55;17.40;94.30
23475;DHT22;11910;52.086;21.066;2023-07-20T01:19:20;17.40;93.70
23475;DHT22;11910;52.086;21.066;2023-07-20T01:30:46;17.30;93.10
23475;DHT22;11910;52.086;21.066;2023-07-20T01:33:17;17.20;93.20
23475;DHT22;11910;52.086;21.066;2023-07-20T01:35:44;17.10;92.70
23475;DHT22;11910;52.086;21.066;2023-07-20T01:38:12;17.10;93.00
23475;DHT22;11910;52.086;21.066;2023-07-20T01:40:39;17.10;93.20
23475;DHT22;11910;52.086;21.066;2023-07-20T01:43:05;17.00;93.30
23475;DHT22;11910;52.086;21.066;2023-07-20T01:45:30;17.00;93.20
23475;DHT22;11910;52.086;21.066;2023-07-20T01:47:56;16.90;94.50
23475;DHT22;11910;52.086;21.066;2023-07-20T01:50:22;16.90;95.40
23475;DHT22;11910;52.086;21.066;2023-07-20T01:52:47;16.80;95.00
23475;DHT22;11910;52.086;21.066;2023-07-20T01:55:13;16.80;92.20
23475;DHT22;11910;52.086;21.066;2023-07-20T01:57:39;16.70;92.00
23475;DHT22;11910;52.086;21.066;2023-07-20T02:00:05;16.70;92.20
23475;DHT22;11910;52.086;21.066;2023-07-20T02:02:32;16.60;91.40
23475;DHT22;11910;52.086;21.066;2023-07-20T02:04:57;16.50;91.30
23475;DHT22;11910;52.086;21.066;2023-07-20T02:07:23;16.50;93.60
23475;DHT22;11910;52.086;21.066;2023-07-20T02:09:48;16.40;95.20
23475;DHT22;11910;52.086;21.066;2023-07-20T02:12:14;16.40;93.50
23475;DHT22;11910;52.086;21.066;2023-07-20T02:14:40;16.40;94.60
23475;DHT22;11910;52.086;21.066;2023-07-20T02:17:05;16.40;96.20
23475;DHT22;11910;52.086;21.066;2023-07-20T02:19:31;16.40;95.60
23475;DHT22;11910;52.086;21.066;2023-07-20T02:21:56;16.40;94.80
23475;DHT22;11910;52.086;21.066;2023-07-20T02:24:22;16.50;94.60
23475;DHT22;11910;52.086;21.066;2023-07-20T02:26:48;16.50;95.80
23475;DHT22;11910;52.086;21.066;2023-07-20T02:29:14;16.50;95.20
23475;DHT22;11910;52.086;21.066;2023-07-20T02:31:39;16.50;95.40
23475;DHT22;11910;52.086;21.066;2023-07-20T02:34:08;16.60;96.30
23475;DHT22;11910;52.086;21.066;2023-07-20T02:36:34;16.60;95.70
23475;DHT22;11910;52.086;21.066;2023-07-20T02:39:00;16.60;95.60
23475;DHT22;11910;52.086;21.066;2023-07-20T02:41:30;16.60;96.10
23475;DHT22;11910;52.086;21.066;2023-07-20T02:43:55;16.60;96.40
23475;DHT22;11910;52.086;21.066;2023-07-20T02:46:22;16.60;97.20
23475;DHT22;11910;52.086;21.066;2023-07-20T02:48:47;16.70;97.70
23475;DHT22;11910;52.086;21.066;2023-07-20T02:51:13;16.70;98.40
23475;DHT22;11910;52.086;21.066;2023-07-20T02:53:38;16.70;98.60
23475;DHT22;11910;52.086;21.066;2023-07-20T02:56:04;16.70;97.60
23475;DHT22;11910;52.086;21.066;2023-07-20T02:58:30;16.80;97.50
23475;DHT22;11910;52.086;21.066;2023-07-20T03:00:55;16.80;97.90
23475;DHT22;11910;52.086;21.066;2023-07-20T03:03:21;16.80;98.20
23475;DHT22;11910;52.086;21.066;2023-07-20T03:05:46;16.90;98.10
23475;DHT22;11910;52.086;21.066;2023-07-20T03:08:12;16.90;98.40
23475;DHT22;11910;52.086;21.066;2023-07-20T03:10:39;16.70;98.60
23475;DHT22;11910;52.086;21.066;2023-07-20T03:13:06;16.70;98.90
23475;DHT22;11910;52.086;21.066;2023-07-20T03:15:32;16.70;99.30
23475;DHT22;11910;52.086;21.066;2023-07-20T03:17:57;16.80;98.90
23475;DHT22;11910;52.086;21.066;2023-07-20T03:20:24;16.90;98.50
23475;DHT22;11910;52.086;21.066;2023-07-20T03:22:49;16.90;99.30
23475;DHT22;11910;52.086;21.066;2023-07-20T03:25:15;17.00;98.90
23475;DHT22;11910;52.086;21.066;2023-07-20T03:27:41;17.00;98.80
23475;DHT22;11910;52.086;21.066;2023-07-20T03:30:07;17.00;98.90
23475;DHT22;11910;52.086;21.066;2023-07-20T03:32:35;17.00;99.10
23475;DHT22;11910;52.086;21.066;2023-07-20T03:35:01;17.00;99.30
23475;DHT22;11910;52.086;21.066;2023-07-20T03:37:26;16.90;99.60
23475;DHT22;11910;52.086;21.066;2023-07-20T03:39:52;17.00;99.70
23475;DHT22;11910;52.086;21.066;2023-07-20T03:42:18;17.00;98.70
23475;DHT22;11910;52.086;21.066;2023-07-20T03:44:43;17.10;99.10
23475;DHT22;11910;52.086;21.066;2023-07-20T03:47:09;17.10;99.50
23475;DHT22;11910;52.086;21.066;2023-07-20T03:49:34;17.20;99.90
23475;DHT22;11910;52.086;21.066;2023-07-20T03:52:01;17.20;99.80
23475;DHT22;11910;52.086;21.066;2023-07-20T03:54:29;17.30;99.90
23475;DHT22;11910;52.086;21.066;2023-07-20T03:56:54;17.30;99.90
23475;DHT22;11910;52.086;21.066;2023-07-20T03:59:20;17.40;99.40
23475;DHT22;11910;52.086;21.066;2023-07-20T04:01:45;17.40;99.90
23475;DHT22;11910;52.086;21.066;2023-07-20T04:04:11;17.40;99.90
23475;DHT22;11910;52.086;21.066;2023-07-20T04:06:37;17.40;99.90
23475;DHT22;11910;52.086;21.066;2023-07-20T04:09:03;17.50;99.90
23475;DHT22;11910;52.086;21.066;2023-07-20T04:11:30;17.50;99.90
23475;DHT22;11910;52.086;21.066;2023-07-20T04:13:56;17.50;99.90
23475;DHT22;11910;52.086;21.066;2023-07-20T04:16:22;17.50;99.90
23475;DHT22;11910;52.086;21.066;2023-07-20T04:18:47;17.50;99.90
23475;DHT22;11910;52.086;21.066;2023-07-20T04:21:13;17.40;99.90
23475;DHT22;11910;52.086;21.066;2023-07-20T04:23:38;17.50;99.90
23475;DHT22;11910;52.086;21.066;2023-07-20T04:26:04;17.40;99.90
23475;DHT22;11910;52.086;21.066;2023-07-20T04:28:29;17.40;99.90
23475;DHT22;11910;52.086;21.066;2023-07-20T04:31:10;17.50;99.90
23475;DHT22;11910;52.086;21.066;2023-07-20T04:33:37;17.50;99.90
23475;DHT22;11910;52.086;21.066;2023-07-20T04:36:02;17.50;99.90
23475;DHT22;11910;52.086;21.066;2023-07-20T04:38:28;17.50;99.90
23475;DHT22;11910;52.086;21.066;2023-07-20T04:40:54;17.50;99.90
23475;DHT22;11910;52.086;21.066;2023-07-20T04:43:19;17.40;99.90
23475;DHT22;11910;52.086;21.066;2023-07-20T04:45:45;17.30;99.90
23475;DHT22;11910;52.086;21.066;2023-07-20T04:48:13;17.30;99.90
23475;DHT22;11910;52.086;21.066;2023-07-20T04:50:43;17.20;99.90
23475;DHT22;11910;52.086;21.066;2023-07-20T04:53:10;17.20;99.90
23475;DHT22;11910;52.086;21.066;2023-07-20T04:55:39;17.10;99.90
23475;DHT22;11910;52.086;21.066;2023-07-20T04:58:05;17.00;99.90
23475;DHT22;11910;52.086;21.066;2023-07-20T05:00:33;17.00;99.90
23475;DHT22;11910;52.086;21.066;2023-07-20T05:02:59;16.90;99.90
23475;DHT22;11910;52.086;21.066;2023-07-20T05:05:25;16.90;99.90
23475;DHT22;11910;52.086;21.066;2023-07-20T05:07:50;16.80;99.90
23475;DHT22;11910;52.086;21.066;2023-07-20T05:10:16;16.90;99.90
23475;DHT22;11910;52.086;21.066;2023-07-20T05:12:41;16.80;99.90
23475;DHT22;11910;52.086;21.066;2023-07-20T05:15:10;16.90;99.90
23475;DHT22;11910;52.086;21.066;2023-07-20T05:17:36;16.80;99.90
23475;DHT22;11910;52.086;21.066;2023-07-20T05:20:01;16.90;99.90
23475;DHT22;11910;52.086;21.066;2023-07-20T05:22:29;16.90;99.90
23475;DHT22;11910;52.086;21.066;2023-07-20T05:24:54;16.90;99.90
23475;DHT22;11910;52.086;21.066;2023-07-20T05:27:20;17.00;99.90
23475;DHT22;11910;52.086;21.066;2023-07-20T05:29:46;17.00;99.90
23475;DHT22;11910;52.086;21.066;2023-07-20T05:32:12;17.00;99.90
23475;DHT22;11910;52.086;21.066;2023-07-20T05:34:38;17.00;99.90
23475;DHT22;11910;52.086;21.066;2023-07-20T05:37:06;17.10;99.90
23475;DHT22;11910;52.086;21.066;2023-07-20T05:39:33;17.10;99.90
23475;DHT22;11910;52.086;21.066;2023-07-20T05:41:58;17.10;99.90
23475;DHT22;11910;52.086;21.066;2023-07-20T05:44:24;17.20;99.90
23475;DHT22;11910;52.086;21.066;2023-07-20T05:46:49;17.20;99.90
23475;DHT22;11910;52.086;21.066;2023-07-20T05:49:15;17.30;99.90
23475;DHT22;11910;52.086;21.066;2023-07-20T05:51:40;17.30;99.90
23475;DHT22;11910;52.086;21.066;2023-07-20T05:54:06;17.40;99.90
23475;DHT22;11910;52.086;21.066;2023-07-20T05:56:32;17.50;99.90
23475;DHT22;11910;52.086;21.066;2023-07-20T05:58:57;17.60;99.90
23475;DHT22;11910;52.086;21.066;2023-07-20T06:01:23;17.60;99.90
23475;DHT22;11910;52.086;21.066;2023-07-20T06:03:52;17.60;99.90
23475;DHT22;11910;52.086;21.066;2023-07-20T06:06:18;17.60;99.90
23475;DHT22;11910;52.086;21.066;2023-07-20T06:08:43;17.70;99.90
23475;DHT22;11910;52.086;21.066;2023-07-20T06:11:09;17.80;99.90
23475;DHT22;11910;52.086;21.066;2023-07-20T06:13:35;17.80;99.90
23475;DHT22;11910;52.086;21.066;2023-07-20T06:16:04;17.90;99.90
23475;DHT22;11910;52.086;21.066;2023-07-20T06:18:29;17.90;99.90
23475;DHT22;11910;52.086;21.066;2023-07-20T06:20:56;17.90;99.90
23475;DHT22;11910;52.086;21.066;2023-07-20T06:23:22;18.00;99.90
23475;DHT22;11910;52.086;21.066;2023-07-20T06:25:48;18.00;99.90
23475;DHT22;11910;52.086;21.066;2023-07-20T06:28:14;18.10;99.90
23475;DHT22;11910;52.086;21.066;2023-07-20T06:30:39;18.10;99.90
23475;DHT22;11910;52.086;21.066;2023-07-20T06:33:05;18.20;99.90
23475;DHT22;11910;52.086;21.066;2023-07-20T06:35:34;18.30;99.90
23475;DHT22;11910;52.086;21.066;2023-07-20T06:38:03;18.40;99.90
23475;DHT22;11910;52.086;21.066;2023-07-20T06:40:31;18.40;99.90
23475;DHT22;11910;52.086;21.066;2023-07-20T06:42:57;18.50;99.90
23475;DHT22;11910;52.086;21.066;2023-07-20T06:45:23;18.50;99.90
23475;DHT22;11910;52.086;21.066;2023-07-20T06:47:57;18.60;99.90
23475;DHT22;11910;52.086;21.066;2023-07-20T06:50:23;18.60;99.90
23475;DHT22;11910;52.086;21.066;2023-07-20T06:52:58;18.50;99.90
23475;DHT22;11910;52.086;21.066;2023-07-20T06:55:28;18.50;99.90
23475;DHT22;11910;52.086;21.066;2023-07-20T06:57:54;18.50;99.90
23475;DHT22;11910;52.086;21.066;2023-07-20T07:00:19;18.40;99.90
23475;DHT22;11910;52.086;21.066;2023-07-20T07:02:45;18.30;99.90
23475;DHT22;11910;52.086;21.066;2023-07-20T07:05:11;18.30;99.90
23475;DHT22;11910;52.086;21.066;2023-07-20T07:07:38;18.30;99.90
23475;DHT22;11910;52.086;21.066;2023-07-20T07:10:05;18.30;99.90
23475;DHT22;11910;52.086;21.066;2023-07-20T07:12:30;18.20;99.90
23475;DHT22;11910;52.086;21.066;2023-07-20T07:14:56;18.30;99.90
23475;DHT22;11910;52.086;21.066;2023-07-20T07:17:24;18.30;99.90
23475;DHT22;11910;52.086;21.066;2023-07-20T07:19:53;18.30;99.90
23475;DHT22;11910;52.086;21.066;2023-07-20T07:22:22;18.30;99.90
23475;DHT22;11910;52.086;21.066;2023-07-20T07:24:48;18.30;99.90
23475;DHT22;11910;52.086;21.066;2023-07-20T07:27:13;18.40;99.90
23475;DHT22;11910;52.086;21.066;2023-07-20T07:29:42;18.30;99.90
23475;DHT22;11910;52.086;21.066;2023-07-20T07:32:15;18.40;99.90
23475;DHT22;11910;52.086;21.066;2023-07-20T07:34:41;18.40;99.90
23475;DHT22;11910;52.086;21.066;2023-07-20T07:37:07;18.30;99.90
23475;DHT22;11910;52.086;21.066;2023-07-20T07:39:33;18.40;99.90
23475;DHT22;11910;52.086;21.066;2023-07-20T07:41:58;18.30;99.90
23475;DHT22;11910;52.086;21.066;2023-07-20T07:44:24;18.30;99.90
23475;DHT22;11910;52.086;21.066;2023-07-20T07:46:53;18.30;99.90
23475;DHT22;11910;52.086;21.066;2023-07-20T07:49:38;18.30;99.90
23475;DHT22;11910;52.086;21.066;2023-07-20T07:52:05;18.20;99.90
23475;DHT22;11910;52.086;21.066;2023-07-20T07:54:30;18.10;99.90
23475;DHT22;11910;52.086;21.066;2023-07-20T07:56:59;18.20;99.90
23475;DHT22;11910;52.086;21.066;2023-07-20T07:59:27;18.10;99.90
23475;DHT22;11910;52.086;21.066;2023-07-20T08:01:52;18.20;99.90
23475;DHT22;11910;52.086;21.066;2023-07-20T08:04:18;18.10;99.90
23475;DHT22;11910;52.086;21.066;2023-07-20T08:06:44;18.20;99.90
23475;DHT22;11910;52.086;21.066;2023-07-20T08:09:10;18.20;99.90
23475;DHT22;11910;52.086;21.066;2023-07-20T08:11:35;18.20;99.90
23475;DHT22;11910;52.086;21.066;2023-07-20T08:14:01;18.20;99.90
23475;DHT22;11910;52.086;21.066;2023-07-20T08:16:27;18.30;99.90
23475;DHT22;11910;52.086;21.066;2023-07-20T08:18:53;18.40;99.90
23475;DHT22;11910;52.086;21.066;2023-07-20T08:21:18;18.40;99.90
23475;DHT22;11910;52.086;21.066;2023-07-20T08:23:44;18.40;99.90
23475;DHT22;11910;52.086;21.066;2023-07-20T08:26:10;18.40;99.90
23475;DHT22;11910;52.086;21.066;2023-07-20T08:28:35;18.50;99.90
23475;DHT22;11910;52.086;21.066;2023-07-20T08:31:01;18.60;99.90
23475;DHT22;11910;52.086;21.066;2023-07-20T08:33:28;18.70;99.90
23475;DHT22;11910;52.086;21.066;2023-07-20T08:35:55;18.80;99.90
23475;DHT22;11910;52.086;21.066;2023-07-20T08:38:21;18.90;99.90
23475;DHT22;11910;52.086;21.066;2023-07-20T08:40:47;19.00;99.90
23475;DHT22;11910;52.086;21.066;2023-07-20T08:43:14;19.00;99.90
23475;DHT22;11910;52.086;21.066;2023-07-20T08:45:45;19.10;99.90
23475;DHT22;11910;52.086;21.066;2023-07-20T08:48:11;19.20;99.90
23475;DHT22;11910;52.086;21.066;2023-07-20T08:50:38;19.20;99.90
23475;DHT22;11910;52.086;21.066;2023-07-20T08:53:04;19.30;99.90
23475;DHT22;11910;52.086;21.066;2023-07-20T08:55:30;19.30;99.90
23475;DHT22;11910;52.086;21.066;2023-07-20T08:57:58;19.20;99.90
23475;DHT22;11910;52.086;21.066;2023-07-20T09:00:26;19.30;99.90
23475;DHT22;11910;52.086;21.066;2023-07-20T09:02:56;19.30;99.90
23475;DHT22;11910;52.086;21.066;2023-07-20T09:05:24;19.30;99.90
23475;DHT22;11910;52.086;21.066;2023-07-20T09:07:53;19.40;99.90
23475;DHT22;11910;52.086;21.066;2023-07-20T09:10:21;19.30;99.90
23475;DHT22;11910;52.086;21.066;2023-07-20T09:12:46;19.20;99.90
23475;DHT22;11910;52.086;21.066;2023-07-20T09:15:12;19.10;99.90
23475;DHT22;11910;52.086;21.066;2023-07-20T09:17:38;19.10;99.90
23475;DHT22;11910;52.086;21.066;2023-07-20T09:20:05;19.10;99.90
23475;DHT22;11910;52.086;21.066;2023-07-20T09:22:36;19.30;99.90
23475;DHT22;11910;52.086;21.066;2023-07-20T09:25:06;19.40;99.90
23475;DHT22;11910;52.086;21.066;2023-07-20T09:27:38;19.50;99.90
23475;DHT22;11910;52.086;21.066;2023-07-20T09:30:04;19.60;99.90
23475;DHT22;11910;52.086;21.066;2023-07-20T09:32:30;19.70;99.90
23475;DHT22;11910;52.086;21.066;2023-07-20T09:34:56;19.80;99.90
23475;DHT22;11910;52.086;21.066;2023-07-20T09:37:22;20.00;99.90
23475;DHT22;11910;52.086;21.066;2023-07-20T09:39:48;20.10;99.90
23475;DHT22;11910;52.086;21.066;2023-07-20T09:42:16;20.20;99.60
23475;DHT22;11910;52.086;21.066;2023-07-20T09:44:45;20.40;99.90
23475;DHT22;11910;52.086;21.066;2023-07-20T09:47:11;20.50;98.80
23475;DHT22;11910;52.086;21.066;2023-07-20T09:49:40;20.90;96.90
23475;DHT22;11910;52.086;21.066;2023-07-20T09:52:08;21.20;95.10
23475;DHT22;11910;52.086;21.066;2023-07-20T09:54:37;21.50;93.70
23475;DHT22;11910;52.086;21.066;2023-07-20T09:57:03;21.50;93.00
23475;DHT22;11910;52.086;21.066;2023-07-20T09:59:31;21.60;93.30
23475;DHT22;11910;52.086;21.066;2023-07-20T10:01:58;21.40;91.90
23475;DHT22;11910;52.086;21.066;2023-07-20T10:04:26;21.20;92.40
23475;DHT22;11910;52.086;21.066;2023-07-20T10:06:54;21.00;93.00
23475;DHT22;11910;52.086;21.066;2023-07-20T10:09:22;21.10;93.30
23475;DHT22;11910;52.086;21.066;2023-07-20T10:11:53;21.10;92.50
23475;DHT22;11910;52.086;21.066;2023-07-20T10:14:22;21.20;92.40
23475;DHT22;11910;52.086;21.066;2023-07-20T10:16:54;21.10;92.60
23475;DHT22;11910;52.086;21.066;2023-07-20T10:19:33;21.10;93.30
23475;DHT22;11910;52.086;21.066;2023-07-20T10:22:03;21.10;91.30
23475;DHT22;11910;52.086;21.066;2023-07-20T10:24:32;21.20;92.20
23475;DHT22;11910;52.086;21.066;2023-07-20T10:27:00;21.70;91.60
23475;DHT22;11910;52.086;21.066;2023-07-20T10:29:26;21.60;91.90
23475;DHT22;11910;52.086;21.066;2023-07-20T10:31:54;21.60;91.50
23475;DHT22;11910;52.086;21.066;2023-07-20T10:34:20;21.40;90.00
23475;DHT22;11910;52.086;21.066;2023-07-20T10:36:47;21.30;91.00
23475;DHT22;11910;52.086;21.066;2023-07-20T10:39:32;21.20;91.10
23475;DHT22;11910;52.086;21.066;2023-07-20T10:42:07;21.10;90.30
23475;DHT22;11910;52.086;21.066;2023-07-20T10:44:33;20.90;90.10
23475;DHT22;11910;52.086;21.066;2023-07-20T10:47:03;20.90;90.40
23475;DHT22;11910;52.086;21.066;2023-07-20T10:49:33;20.90;91.70
23475;DHT22;11910;52.086;21.066;2023-07-20T10:52:00;21.00;91.00
23475;DHT22;11910;52.086;21.066;2023-07-20T10:56:56;21.20;90.70
23475;DHT22;11910;52.086;21.066;2023-07-20T11:01:55;21.60;89.10
23475;DHT22;11910;52.086;21.066;2023-07-20T11:04:44;22.70;84.40
23475;DHT22;11910;52.086;21.066;2023-07-20T11:07:10;25.20;79.00
23475;DHT22;11910;52.086;21.066;2023-07-20T11:09:40;26.50;77.80
23475;DHT22;11910;52.086;21.066;2023-07-20T11:12:17;26.40;69.50
23475;DHT22;11910;52.086;21.066;2023-07-20T11:14:54;27.20;69.30
23475;DHT22;11910;52.086;21.066;2023-07-20T11:17:20;26.40;69.40
23475;DHT22;11910;52.086;21.066;2023-07-20T11:19:56;27.90;65.70
23475;DHT22;11910;52.086;21.066;2023-07-20T11:22:22;27.00;66.00
23475;DHT22;11910;52.086;21.066;2023-07-20T11:24:48;25.80;69.10
23475;DHT22;11910;52.086;21.066;2023-07-20T11:27:14;25.00;70.10
23475;DHT22;11910;52.086;21.066;2023-07-20T11:29:40;24.60;73.60
23475;DHT22;11910;52.086;21.066;2023-07-20T11:32:07;24.10;75.80
23475;DHT22;11910;52.086;21.066;2023-07-20T11:34:33;23.80;76.10
23475;DHT22;11910;52.086;21.066;2023-07-20T11:37:01;23.60;78.20
23475;DHT22;11910;52.086;21.066;2023-07-20T11:39:29;23.30;79.20
23475;DHT22;11910;52.086;21.066;2023-07-20T11:41:55;25.00;75.90
23475;DHT22;11910;52.086;21.066;2023-07-20T11:44:23;26.20;74.00
23475;DHT22;11910;52.086;21.066;2023-07-20T11:49:27;27.10;71.80
23475;DHT22;11910;52.086;21.066;2023-07-20T11:51:53;26.50;68.30
23475;DHT22;11910;52.086;21.066;2023-07-20T11:54:19;28.20;66.40
23475;DHT22;11910;52.086;21.066;2023-07-20T11:56:44;29.30;63.10
23475;DHT22;11910;52.086;21.066;2023-07-20T11:59:10;28.50;65.00
23475;DHT22;11910;52.086;21.066;2023-07-20T12:01:36;27.80;62.80
23475;DHT22;11910;52.086;21.066;2023-07-20T12:04:03;27.90;67.20
23475;DHT22;11910;52.086;21.066;2023-07-20T12:06:29;27.20;66.20
23475;DHT22;11910;52.086;21.066;2023-07-20T12:08:57;26.50;65.90
23475;DHT22;11910;52.086;21.066;2023-07-20T12:11:36;25.80;67.80
23475;DHT22;11910;52.086;21.066;2023-07-20T12:14:03;25.20;68.70
23475;DHT22;11910;52.086;21.066;2023-07-20T12:16:30;24.80;71.30
23475;DHT22;11910;52.086;21.066;2023-07-20T12:19:15;24.50;73.30
23475;DHT22;11910;52.086;21.066;2023-07-20T12:21:41;24.40;74.90
23475;DHT22;11910;52.086;21.066;2023-07-20T12:24:11;24.10;74.30
23475;DHT22;11910;52.086;21.066;2023-07-20T12:26:37;23.90;75.40
23475;DHT22;11910;52.086;21.066;2023-07-20T12:29:03;23.60;76.30
23475;DHT22;11910;52.086;21.066;2023-07-20T12:31:36;23.30;78.10
23475;DHT22;11910;52.086;21.066;2023-07-20T12:34:02;23.20;76.00
23475;DHT22;11910;52.086;21.066;2023-07-20T12:36:28;23.60;76.30
23475;DHT22;11910;52.086;21.066;2023-07-20T12:38:53;24.00;76.50
23475;DHT22;11910;52.086;21.066;2023-07-20T12:41:19;24.50;73.90
23475;DHT22;11910;52.086;21.066;2023-07-20T12:43:45;24.90;72.50
23475;DHT22;11910;52.086;21.066;2023-07-20T12:46:12;25.10;71.50
23475;DHT22;11910;52.086;21.066;2023-07-20T12:48:39;25.20;73.30
23475;DHT22;11910;52.086;21.066;2023-07-20T12:51:06;24.90;72.30
23475;DHT22;11910;52.086;21.066;2023-07-20T12:53:32;24.60;74.00
23475;DHT22;11910;52.086;21.066;2023-07-20T12:55:58;24.40;73.00
23475;DHT22;11910;52.086;21.066;2023-07-20T12:58:24;24.10;73.80
23475;DHT22;11910;52.086;21.066;2023-07-20T13:00:49;23.70;74.70
23475;DHT22;11910;52.086;21.066;2023-07-20T13:03:15;23.40;75.10
23475;DHT22;11910;52.086;21.066;2023-07-20T13:05:41;23.20;76.50
23475;DHT22;11910;52.086;21.066;2023-07-20T13:08:07;23.10;76.70
23475;DHT22;11910;52.086;21.066;2023-07-20T13:10:33;23.20;76.60
23475;DHT22;11910;52.086;21.066;2023-07-20T13:12:59;23.10;77.10
23475;DHT22;11910;52.086;21.066;2023-07-20T13:15:30;23.10;76.40
23475;DHT22;11910;52.086;21.066;2023-07-20T13:17:57;23.10;77.70
23475;DHT22;11910;52.086;21.066;2023-07-20T13:20:23;23.10;78.70
23475;DHT22;11910;52.086;21.066;2023-07-20T13:22:48;23.00;78.60
23475;DHT22;11910;52.086;21.066;2023-07-20T13:25:14;23.20;77.40
23475;DHT22;11910;52.086;21.066;2023-07-20T13:27:40;23.30;77.00
23475;DHT22;11910;52.086;21.066;2023-07-20T13:30:06;23.40;78.70
23475;DHT22;11910;52.086;21.066;2023-07-20T13:32:33;23.70;77.60
23475;DHT22;11910;52.086;21.066;2023-07-20T13:34:59;23.80;74.70
23475;DHT22;11910;52.086;21.066;2023-07-20T13:37:24;23.70;73.10
23475;DHT22;11910;52.086;21.066;2023-07-20T13:39:50;23.70;74.20
23475;DHT22;11910;52.086;21.066;2023-07-20T13:42:16;23.70;75.00
23475;DHT22;11910;52.086;21.066;2023-07-20T13:44:42;23.70;76.10
23475;DHT22;11910;52.086;21.066;2023-07-20T13:47:08;23.70;74.90
23475;DHT22;11910;52.086;21.066;2023-07-20T13:49:33;23.50;75.50
23475;DHT22;11910;52.086;21.066;2023-07-20T13:51:59;23.40;76.10
23475;DHT22;11910;52.086;21.066;2023-07-20T13:54:25;23.20;76.50
23475;DHT22;11910;52.086;21.066;2023-07-20T13:56:51;23.00;77.40
23475;DHT22;11910;52.086;21.066;2023-07-20T13:59:18;22.80;78.30
23475;DHT22;11910;52.086;21.066;2023-07-20T14:01:43;22.70;77.80
23475;DHT22;11910;52.086;21.066;2023-07-20T14:04:09;22.60;78.30
23475;DHT22;11910;52.086;21.066;2023-07-20T14:06:34;22.60;78.80
23475;DHT22;11910;52.086;21.066;2023-07-20T14:09:01;22.50;79.00
23475;DHT22;11910;52.086;21.066;2023-07-20T14:11:27;22.50;78.60
23475;DHT22;11910;52.086;21.066;2023-07-20T14:13:53;22.50;78.20
23475;DHT22;11910;52.086;21.066;2023-07-20T14:16:19;22.30;78.30
23475;DHT22;11910;52.086;21.066;2023-07-20T14:18:45;22.40;80.90
23475;DHT22;11910;52.086;21.066;2023-07-20T14:21:15;22.20;78.80
23475;DHT22;11910;52.086;21.066;2023-07-20T14:23:40;22.20;78.90
23475;DHT22;11910;52.086;21.066;2023-07-20T14:26:06;22.10;79.70
23475;DHT22;11910;52.086;21.066;2023-07-20T14:28:33;22.10;79.90
23475;DHT22;11910;52.086;21.066;2023-07-20T14:30:58;22.10;78.80
23475;DHT22;11910;52.086;21.066;2023-07-20T14:33:24;22.10;79.20
23475;DHT22;11910;52.086;21.066;2023-07-20T14:35:50;22.20;81.40
23475;DHT22;11910;52.086;21.066;2023-07-20T14:38:15;22.10;80.20
23475;DHT22;11910;52.086;21.066;2023-07-20T14:40:41;22.00;80.00
23475;DHT22;11910;52.086;21.066;2023-07-20T14:43:06;21.90;80.60
23475;DHT22;11910;52.086;21.066;2023-07-20T14:45:32;21.80;81.70
23475;DHT22;11910;52.086;21.066;2023-07-20T14:47:58;21.70;81.50
23475;DHT22;11910;52.086;21.066;2023-07-20T14:50:24;21.60;85.20
23475;DHT22;11910;52.086;21.066;2023-07-20T14:52:50;21.10;90.90
23475;DHT22;11910;52.086;21.066;2023-07-20T14:55:16;21.10;92.90
23475;DHT22;11910;52.086;21.066;2023-07-20T14:57:42;21.20;92.10
23475;DHT22;11910;52.086;21.066;2023-07-20T15:00:08;21.40;90.50
23475;DHT22;11910;52.086;21.066;2023-07-20T15:02:36;21.40;90.30
23475;DHT22;11910;52.086;21.066;2023-07-20T15:05:03;21.40;89.60
23475;DHT22;11910;52.086;21.066;2023-07-20T15:07:28;21.50;89.70
23475;DHT22;11910;52.086;21.066;2023-07-20T15:09:54;21.60;88.50
23475;DHT22;11910;52.086;21.066;2023-07-20T15:12:20;21.80;88.90
23475;DHT22;11910;52.086;21.066;2023-07-20T15:15:01;21.80;88.00
23475;DHT22;11910;52.086;21.066;2023-07-20T15:17:27;21.80;86.10
23475;DHT22;11910;52.086;21.066;2023-07-20T15:19:53;21.80;85.70
23475;DHT22;11910;52.086;21.066;2023-07-20T15:22:18;21.80;87.10
23475;DHT22;11910;52.086;21.066;2023-07-20T15:24:44;21.80;85.50
23475;DHT22;11910;52.086;21.066;2023-07-20T15:27:10;21.80;86.20
23475;DHT22;11910;52.086;21.066;2023-07-20T15:29:35;21.90;87.00
23475;DHT22;11910;52.086;21.066;2023-07-20T15:32:01;22.00;88.30
23475;DHT22;11910;52.086;21.066;2023-07-20T15:34:27;22.10;85.90